LPMA/FNC METAR and TAF weather

Enter ICAO airport designator
Station Type Date Time Source
LPMA METAR 2019/06/16 05:00 UTC NOAA

LPMA 160500Z 01005KT 9999 FEW016 SCT030 17/11 Q1020


Station Type Date Time Source
LPMA Decoded METAR 2019/06/16 05:00 UTC NOAA

Aeroporto Da Madeira, Portugal (LPMA) 32-41-52N 016-46-28W
Jun 16, 2019 - 01:00 AM EDT / 2019.06.16 0500 UTC
Wind: from the N (010 degrees) at 6 MPH (5 KT):0
Visibility: greater than 7 mile(s):0
Sky conditions: partly cloudy
Temperature: 62 F (17 C)
Dew Point: 51 F (11 C)
Relative Humidity: 67%
Pressure (altimeter): 30.12 in. Hg (1020 hPa)
ob: LPMA 160500Z 01005KT 9999 FEW016 SCT030 17/11 Q1020
cycle: 5

Station Type Date Time Source
LPMA TAF 2019/06/15 18:18 UTC NOAA

TAF LPMA 151700Z 1518/1618 VRB05KT 9999 SCT016
BECMG 1612/1615 21015KT SCT015 BKN030

Example: see airport list